Time;durP1;ratioP1;P1;durP2;ratioP2;P2;SDS_P1;SDS_P2;PMS_P1;PMS_P2;Temp;Humidity;BMP_temperature;BMP_pressure;BME280_temperature;BME280_humidity;BME280_pressure;Samples;Min_cycle;Max_cycle;Signal;HPM_P1;HPM_P2
2023/10/29 00:01:03;;;;;;;24.77;14.45;;;10.50;99.90;;;;;;6220919;23;20032;-79
2023/10/29 00:03:30;;;;;;;24.23;14.48;;;10.40;99.90;;;;;;6220838;23;20027;-79
2023/10/29 00:05:58;;;;;;;20.30;12.75;;;10.50;99.90;;;;;;6220206;23;20023;-79
2023/10/29 00:08:25;;;;;;;24.50;13.43;;;10.50;99.90;;;;;;6221159;23;20036;-79
2023/10/29 00:10:52;;;;;;;23.23;13.98;;;10.50;99.90;;;;;;6220605;23;20095;-79
2023/10/29 00:13:19;;;;;;;24.52;14.45;;;10.50;99.90;;;;;;6184057;23;20020;-80
2023/10/29 00:15:48;;;;;;;25.80;15.57;;;10.50;99.90;;;;;;6220952;23;20012;-80
2023/10/29 00:18:16;;;;;;;27.00;15.38;;;10.40;99.90;;;;;;6183241;23;20021;-79
2023/10/29 00:20:43;;;;;;;28.80;17.80;;;10.30;99.90;;;;;;6221180;23;20021;-79
2023/10/29 00:23:11;;;;;;;32.17;16.75;;;10.20;99.90;;;;;;6220880;23;20020;-80
2023/10/29 00:25:38;;;;;;;34.58;22.67;;;10.30;99.90;;;;;;6221127;23;20013;-80
2023/10/29 00:28:06;;;;;;;22.50;14.55;;;10.30;99.90;;;;;;6221761;23;20020;-77
2023/10/29 00:30:34;;;;;;;25.23;16.58;;;10.30;99.90;;;;;;6223274;23;20082;-78
2023/10/29 00:33:03;;;;;;;23.98;15.95;;;10.40;99.90;;;;;;6221640;23;20067;-81
2023/10/29 00:35:30;;;;;;;26.23;16.08;;;10.30;99.90;;;;;;6225450;23;20327;-79
2023/10/29 00:37:57;;;;;;;26.58;14.27;;;10.20;99.90;;;;;;6194127;23;20025;-79
2023/10/29 00:40:25;;;;;;;24.05;14.10;;;10.10;99.90;;;;;;6227250;23;20025;-79
2023/10/29 00:42:52;;;;;;;28.00;16.58;;;10.10;99.90;;;;;;6222322;23;20067;-79
2023/10/29 00:45:19;;;;;;;29.88;16.05;;;10.00;99.90;;;;;;6188791;23;20725;-80
2023/10/29 00:47:47;;;;;;;30.80;16.27;;;10.00;99.90;;;;;;6223495;23;20013;-77
2023/10/29 00:50:15;;;;;;;29.83;17.70;;;10.00;99.90;;;;;;6185930;23;20017;-79
2023/10/29 00:52:43;;;;;;;27.30;17.42;;;10.00;99.90;;;;;;6223917;23;20013;-76
2023/10/29 00:55:10;;;;;;;24.35;13.88;;;10.00;99.90;;;;;;6183988;23;20032;-79
2023/10/29 00:57:38;;;;;;;20.27;10.70;;;10.00;99.90;;;;;;6221395;23;20013;-78
2023/10/29 01:00:08;;;;;;;23.35;10.93;;;10.00;99.90;;;;;;6185736;23;20024;-77
2023/10/29 01:02:36;;;;;;;21.10;10.40;;;10.00;99.90;;;;;;6222385;23;20025;-79
2023/10/29 01:05:04;;;;;;;19.10;10.35;;;10.00;99.90;;;;;;6222589;23;20013;-77
2023/10/29 01:07:34;;;;;;;22.35;12.15;;;10.00;99.90;;;;;;6203082;23;20070;-78
2023/10/29 01:10:02;;;;;;;21.98;13.45;;;10.00;99.90;;;;;;6211142;23;20020;-79
2023/10/29 01:12:30;;;;;;;25.10;14.10;;;9.80;99.90;;;;;;6222970;23;20376;-77
2023/10/29 01:14:57;;;;;;;27.55;13.90;;;9.80;99.90;;;;;;6222509;23;20024;-79
2023/10/29 01:17:24;;;;;;;24.08;13.70;;;9.80;99.90;;;;;;6209955;23;20032;-81
2023/10/29 01:19:52;;;;;;;23.90;14.38;;;9.90;99.90;;;;;;6210072;23;20071;-79
2023/10/29 01:22:20;;;;;;;19.85;11.80;;;9.80;99.90;;;;;;6210618;23;20016;-79
2023/10/29 01:24:49;;;;;;;18.17;10.38;;;9.70;99.90;;;;;;6210570;23;20044;-79
2023/10/29 01:27:17;;;;;;;21.55;12.35;;;9.80;99.90;;;;;;6221872;23;20441;-80
2023/10/29 01:29:44;;;;;;;20.38;12.55;;;9.80;99.90;;;;;;6222579;23;20020;-79
2023/10/29 01:32:12;;;;;;;23.90;11.98;;;9.80;99.90;;;;;;6222550;23;20417;-79
2023/10/29 01:34:39;;;;;;;21.92;11.75;;;9.90;99.90;;;;;;6210118;23;20031;-78
2023/10/29 01:37:06;;;;;;;19.30;11.32;;;9.80;99.90;;;;;;6221936;23;20059;-79
2023/10/29 01:39:34;;;;;;;21.70;12.52;;;9.80;99.90;;;;;;6210622;23;20027;-79
2023/10/29 01:42:02;;;;;;;18.95;12.38;;;9.70;99.90;;;;;;6210719;23;20017;-80
2023/10/29 01:44:30;;;;;;;20.90;12.48;;;9.70;99.90;;;;;;6210643;23;20029;-77
2023/10/29 01:46:58;;;;;;;19.02;10.95;;;9.80;99.90;;;;;;6209933;23;20050;-77
2023/10/29 01:49:25;;;;;;;19.45;10.63;;;9.80;99.90;;;;;;6210556;23;20040;-77
2023/10/29 01:51:52;;;;;;;22.05;11.00;;;9.80;99.90;;;;;;6221907;23;20025;-79
2023/10/29 01:54:20;;;;;;;17.63;9.90;;;9.80;99.90;;;;;;6222437;23;20020;-80
2023/10/29 01:56:47;;;;;;;22.33;9.20;;;9.70;99.90;;;;;;6210068;23;20461;-79
2023/10/29 01:59:17;;;;;;;19.63;9.32;;;9.70;99.90;;;;;;6210506;23;20020;-81
2023/10/29 02:01:45;;;;;;;16.67;9.27;;;9.70;99.90;;;;;;6210142;23;20021;-77
2023/10/29 02:04:12;;;;;;;19.67;10.43;;;9.70;99.90;;;;;;6210115;23;20079;-78
2023/10/29 02:06:39;;;;;;;14.73;9.07;;;9.60;99.90;;;;;;6219361;23;20012;-77
2023/10/29 02:09:08;;;;;;;18.15;8.90;;;9.70;99.90;;;;;;6184734;23;20063;-78
2023/10/29 02:11:36;;;;;;;13.60;8.27;;;9.80;99.90;;;;;;6222322;23;20016;-77
2023/10/29 02:14:04;;;;;;;17.85;9.15;;;9.70;99.90;;;;;;6223091;23;20019;-78
2023/10/29 02:16:33;;;;;;;20.40;9.50;;;9.80;99.90;;;;;;6185184;23;20049;-77
2023/10/29 02:19:01;;;;;;;22.65;10.57;;;9.70;99.90;;;;;;6221310;23;20500;-79
2023/10/29 02:21:28;;;;;;;26.88;13.45;;;9.60;99.90;;;;;;6186078;23;20322;-78
2023/10/29 02:24:00;;;;;;;22.67;11.95;;;9.50;99.90;;;;;;6186376;23;20020;-78
2023/10/29 02:26:29;;;;;;;17.02;9.88;;;9.50;99.90;;;;;;6222054;23;20019;-79
2023/10/29 02:28:56;;;;;;;16.30;9.15;;;9.50;99.90;;;;;;6185712;23;20019;-78
2023/10/29 02:31:23;;;;;;;14.27;8.05;;;9.60;99.90;;;;;;6222728;23;20017;-79
2023/10/29 02:33:53;;;;;;;16.38;7.40;;;9.60;99.90;;;;;;6223424;23;20205;-78
2023/10/29 02:36:20;;;;;;;15.88;8.43;;;9.60;99.90;;;;;;6224185;23;20085;-80
2023/10/29 02:38:47;;;;;;;17.15;9.63;;;9.50;99.90;;;;;;6237387;23;20008;-79
2023/10/29 02:41:16;;;;;;;18.00;9.95;;;9.50;99.90;;;;;;6207973;22;20016;-79
2023/10/29 02:43:43;;;;;;;21.90;9.93;;;9.50;99.90;;;;;;6245757;23;20054;-77
2023/10/29 02:46:11;;;;;;;19.75;10.10;;;9.40;99.90;;;;;;6192657;23;20038;-78
2023/10/29 02:48:39;;;;;;;16.88;9.52;;;9.30;99.90;;;;;;6185100;23;20020;-79
2023/10/29 02:51:12;;;;;;;19.25;11.70;;;9.30;99.90;;;;;;6184747;23;20024;-79
2023/10/29 02:53:40;;;;;;;15.95;10.13;;;9.40;99.90;;;;;;6185285;23;20024;-79
2023/10/29 02:56:07;;;;;;;17.25;9.40;;;9.50;99.90;;;;;;6221044;23;20020;-78
2023/10/29 02:58:36;;;;;;;15.52;8.68;;;9.60;99.90;;;;;;6185433;23;20369;-79
2023/10/29 03:01:05;;;;;;;14.43;8.00;;;9.70;99.90;;;;;;6222146;23;20019;-77
2023/10/29 03:03:32;;;;;;;15.90;7.53;;;9.80;99.90;;;;;;6185400;23;20020;-80
2023/10/29 03:06:04;;;;;;;15.05;7.57;;;9.80;99.90;;;;;;6184699;23;20020;-79
2023/10/29 03:08:31;;;;;;;13.68;7.47;;;9.70;99.90;;;;;;6223968;23;20025;-80
2023/10/29 03:10:59;;;;;;;15.13;7.07;;;9.80;99.90;;;;;;6189352;23;20066;-78
2023/10/29 03:13:27;;;;;;;17.10;8.38;;;9.70;99.90;;;;;;6231694;23;20024;-78
2023/10/29 03:15:56;;;;;;;15.10;8.57;;;9.70;99.90;;;;;;6227782;23;20464;-79
2023/10/29 03:18:24;;;;;;;14.18;8.45;;;9.70;99.90;;;;;;6222405;23;20322;-77
2023/10/29 03:20:52;;;;;;;17.52;9.00;;;9.70;99.90;;;;;;6222392;23;20017;-77
2023/10/29 03:23:19;;;;;;;14.90;8.88;;;9.70;99.90;;;;;;6185831;23;20017;-79
2023/10/29 03:25:48;;;;;;;15.10;9.20;;;9.60;99.90;;;;;;6185391;23;20040;-79
2023/10/29 03:28:17;;;;;;;14.13;9.13;;;9.60;99.90;;;;;;6184646;23;20040;-78
2023/10/29 03:30:44;;;;;;;13.95;8.65;;;9.60;99.90;;;;;;6185356;23;20119;-78
2023/10/29 03:33:13;;;;;;;15.93;8.20;;;9.50;99.90;;;;;;6231461;22;20012;-75
2023/10/29 03:35:41;;;;;;;18.80;9.63;;;9.60;99.90;;;;;;6237614;23;20060;-75
2023/10/29 03:38:08;;;;;;;20.75;9.48;;;9.60;99.90;;;;;;6197896;23;20036;-77
2023/10/29 03:40:38;;;;;;;14.75;7.43;;;9.60;99.90;;;;;;6196329;23;20017;-76
2023/10/29 03:43:05;;;;;;;15.80;7.82;;;9.60;99.90;;;;;;6197551;23;20017;-75
2023/10/29 03:45:36;;;;;;;12.63;7.00;;;9.60;99.90;;;;;;6207792;23;20021;-76
2023/10/29 03:48:06;;;;;;;14.05;7.05;;;9.50;99.90;;;;;;6205353;23;20017;-75
2023/10/29 03:50:34;;;;;;;15.25;7.85;;;9.50;99.90;;;;;;6206143;23;20020;-76
2023/10/29 03:53:02;;;;;;;14.90;8.57;;;9.60;99.90;;;;;;6206559;23;20021;-77
2023/10/29 03:55:29;;;;;;;13.23;7.72;;;9.60;99.90;;;;;;6211127;23;20054;-74
2023/10/29 03:57:57;;;;;;;15.50;7.10;;;9.60;99.90;;;;;;6212657;23;20047;-76
2023/10/29 04:00:25;;;;;;;14.40;7.15;;;9.60;99.90;;;;;;6250926;22;20024;-77
2023/10/29 04:02:52;;;;;;;12.95;7.10;;;9.60;99.90;;;;;;6213138;23;20020;-76
2023/10/29 04:05:20;;;;;;;12.77;6.60;;;9.60;99.90;;;;;;6247137;23;20020;-77
2023/10/29 04:07:49;;;;;;;9.63;5.95;;;9.60;99.90;;;;;;6212608;22;20007;-78
2023/10/29 04:10:20;;;;;;;13.32;6.30;;;9.60;99.90;;;;;;6248287;22;20020;-79
2023/10/29 04:12:47;;;;;;;12.77;7.18;;;9.60;99.90;;;;;;6188639;23;20012;-77
2023/10/29 04:15:14;;;;;;;14.80;7.90;;;9.50;99.90;;;;;;6224380;23;20013;-76
2023/10/29 04:17:42;;;;;;;13.07;7.85;;;9.60;99.90;;;;;;6223756;23;20016;-74
2023/10/29 04:20:10;;;;;;;15.18;8.07;;;9.50;99.90;;;;;;6224026;23;20009;-77
2023/10/29 04:22:37;;;;;;;16.42;9.35;;;9.50;99.90;;;;;;6223816;23;20334;-76
2023/10/29 04:25:07;;;;;;;15.63;9.88;;;9.40;99.90;;;;;;6226245;23;20436;-79
2023/10/29 04:27:34;;;;;;;20.05;9.38;;;9.20;99.90;;;;;;6223388;23;20012;-78
2023/10/29 04:30:02;;;;;;;18.95;10.77;;;9.10;99.90;;;;;;6187441;23;20020;-78
2023/10/29 04:32:29;;;;;;;17.38;10.27;;;9.20;99.90;;;;;;6225039;23;20012;-78
2023/10/29 04:34:57;;;;;;;16.55;9.07;;;9.20;99.90;;;;;;6226201;23;20020;-75
2023/10/29 04:37:24;;;;;;;14.25;8.45;;;9.20;99.90;;;;;;6189919;23;20523;-75
2023/10/29 04:39:51;;;;;;;17.77;10.48;;;9.20;99.90;;;;;;6249073;22;20027;-77
2023/10/29 04:42:20;;;;;;;19.42;9.90;;;9.30;99.90;;;;;;6253334;22;20024;-77
2023/10/29 04:44:47;;;;;;;19.38;9.35;;;9.20;99.90;;;;;;6207125;23;20017;-77
2023/10/29 04:47:16;;;;;;;17.17;10.20;;;9.20;99.90;;;;;;6244860;23;20020;-78
2023/10/29 04:49:44;;;;;;;13.93;8.55;;;9.20;99.90;;;;;;6236017;23;20047;-77
2023/10/29 04:52:12;;;;;;;14.57;8.02;;;9.10;99.90;;;;;;6226457;23;20016;-77
2023/10/29 04:54:42;;;;;;;15.27;8.25;;;9.20;99.90;;;;;;6188843;23;20074;-77
2023/10/29 04:57:09;;;;;;;16.23;8.68;;;9.20;99.90;;;;;;6225782;23;20020;-78
2023/10/29 04:59:38;;;;;;;17.90;7.70;;;9.10;99.90;;;;;;6224756;23;20080;-78
2023/10/29 05:02:05;;;;;;;14.35;7.47;;;9.00;99.90;;;;;;6225718;23;20439;-77
2023/10/29 05:04:33;;;;;;;16.92;7.10;;;9.00;99.90;;;;;;6190107;23;20024;-75
2023/10/29 05:07:00;;;;;;;13.93;7.20;;;9.10;99.90;;;;;;6225185;23;20420;-77
2023/10/29 05:09:28;;;;;;;15.52;7.82;;;9.10;99.90;;;;;;6188913;23;20086;-76
2023/10/29 05:11:55;;;;;;;13.23;7.00;;;8.90;99.90;;;;;;6187875;23;20031;-78
2023/10/29 05:14:23;;;;;;;19.77;8.60;;;8.80;99.90;;;;;;6224847;23;20009;-76
2023/10/29 05:16:52;;;;;;;17.85;7.72;;;8.80;99.90;;;;;;6186887;23;20021;-78
2023/10/29 05:19:20;;;;;;;12.93;7.35;;;8.80;99.90;;;;;;6224972;23;20047;-77
2023/10/29 05:21:47;;;;;;;26.13;15.35;;;8.80;99.90;;;;;;6224853;23;20392;-78
2023/10/29 05:24:15;;;;;;;28.00;14.65;;;8.90;99.90;;;;;;6224726;23;20016;-77
2023/10/29 05:26:43;;;;;;;29.73;17.25;;;8.90;99.90;;;;;;6224328;23;20095;-77
2023/10/29 05:29:10;;;;;;;23.08;13.80;;;9.10;99.90;;;;;;6188256;23;20345;-77
2023/10/29 05:31:38;;;;;;;19.20;11.77;;;9.00;99.90;;;;;;6224516;23;20017;-77
2023/10/29 05:34:07;;;;;;;17.75;11.80;;;8.90;99.90;;;;;;6223748;23;20461;-78
2023/10/29 05:36:36;;;;;;;23.42;12.90;;;9.00;99.90;;;;;;6187730;23;20016;-75
2023/10/29 05:39:05;;;;;;;20.55;13.05;;;8.90;99.90;;;;;;6224955;23;20460;-78
2023/10/29 05:41:32;;;;;;;23.65;13.45;;;8.90;99.90;;;;;;6224437;23;20023;-76
2023/10/29 05:43:59;;;;;;;18.55;11.52;;;8.90;99.90;;;;;;6187722;23;20021;-77
2023/10/29 05:46:27;;;;;;;16.73;8.70;;;8.90;99.90;;;;;;6225117;23;20013;-77
2023/10/29 05:48:55;;;;;;;13.43;8.15;;;9.00;99.90;;;;;;6225324;23;20012;-74
2023/10/29 05:51:25;;;;;;;15.05;7.80;;;9.00;99.90;;;;;;6187994;23;20017;-77
2023/10/29 05:53:52;;;;;;;13.57;7.57;;;9.10;99.90;;;;;;6225081;23;20376;-77
2023/10/29 05:56:20;;;;;;;13.07;6.57;;;9.10;99.90;;;;;;6187873;23;20103;-75
2023/10/29 05:58:48;;;;;;;14.88;9.13;;;9.10;99.90;;;;;;6226963;23;20016;-76
2023/10/29 06:01:15;;;;;;;11.93;8.13;;;9.20;99.90;;;;;;6230424;23;20059;-75
2023/10/29 06:03:43;;;;;;;16.15;8.80;;;9.20;99.90;;;;;;6230284;23;20023;-77
2023/10/29 06:06:10;;;;;;;18.10;8.10;;;9.20;99.90;;;;;;6210850;23;20354;-76
2023/10/29 06:08:39;;;;;;;17.77;8.07;;;9.20;99.90;;;;;;6246304;23;20039;-74
2023/10/29 06:11:06;;;;;;;11.88;7.00;;;9.20;99.90;;;;;;6231642;23;20032;-77
2023/10/29 06:13:34;;;;;;;13.35;7.45;;;9.20;99.90;;;;;;6228473;23;20017;-77
2023/10/29 06:16:01;;;;;;;17.23;8.10;;;9.40;99.90;;;;;;6225738;23;20111;-79
2023/10/29 06:18:28;;;;;;;20.77;8.18;;;9.40;99.90;;;;;;6225775;23;20386;-75
2023/10/29 06:20:56;;;;;;;17.60;8.00;;;9.50;99.90;;;;;;6225203;23;20016;-78
2023/10/29 06:23:23;;;;;;;13.32;8.27;;;9.60;99.90;;;;;;6189365;23;20012;-75
2023/10/29 06:25:52;;;;;;;19.40;8.30;;;9.80;99.90;;;;;;6227848;23;20026;-76
2023/10/29 06:28:19;;;;;;;11.82;7.50;;;10.10;99.90;;;;;;6192597;23;20051;-74
2023/10/29 06:30:46;;;;;;;13.63;7.28;;;10.20;99.90;;;;;;6242888;23;20015;-76
2023/10/29 06:33:14;;;;;;;13.95;7.70;;;10.20;99.90;;;;;;6229509;23;20017;-74
2023/10/29 06:35:41;;;;;;;13.25;7.13;;;10.50;99.90;;;;;;6188441;23;20477;-78
2023/10/29 06:38:09;;;;;;;13.90;7.35;;;10.80;99.90;;;;;;6225742;23;20017;-75
2023/10/29 06:40:36;;;;;;;16.45;8.55;;;11.20;99.90;;;;;;6225290;23;20052;-78
2023/10/29 06:43:05;;;;;;;23.23;11.13;;;11.40;99.90;;;;;;6224966;23;20040;-76
2023/10/29 06:45:32;;;;;;;15.73;9.65;;;11.60;99.90;;;;;;6186452;23;20031;-75
2023/10/29 06:48:00;;;;;;;15.60;8.30;;;11.80;99.90;;;;;;6195562;23;20024;-76
2023/10/29 06:50:28;;;;;;;15.82;8.73;;;11.90;99.90;;;;;;6248742;23;20016;-75
2023/10/29 06:52:56;;;;;;;17.08;8.80;;;12.00;99.90;;;;;;6249003;23;20013;-75
2023/10/29 06:55:25;;;;;;;15.98;10.60;;;12.10;99.90;;;;;;6212460;23;20021;-77
2023/10/29 06:57:52;;;;;;;16.60;9.82;;;12.10;99.90;;;;;;6246529;23;20024;-75
2023/10/29 07:00:21;;;;;;;19.65;9.02;;;12.20;99.90;;;;;;6212799;23;20013;-77
2023/10/29 07:02:50;;;;;;;17.10;8.52;;;12.30;1.00;;;;;;6249951;23;20011;-77
2023/10/29 07:05:18;;;;;;;13.82;7.65;;;12.10;99.90;;;;;;6247789;23;20004;-77
2023/10/29 07:08:03;;;;;;;18.35;8.55;;;12.30;99.90;;;;;;6247996;23;20100;-75
2023/10/29 07:10:44;;;;;;;19.25;10.77;;;12.40;99.90;;;;;;6191311;23;20092;-74
2023/10/29 07:13:11;;;;;;;16.27;8.02;;;12.50;99.90;;;;;;6213473;23;20080;-76
2023/10/29 07:15:45;;;;;;;12.35;7.03;;;12.80;99.90;;;;;;6249857;22;20008;-76
2023/10/29 07:29:17;;;;;;;32.38;11.57;;;13.60;1.00;;;;;;6008326;23;20042;-75
2023/10/29 07:31:53;;;;;;;18.10;9.45;;;13.90;99.90;;;;;;6100854;23;20022;-78
2023/10/29 07:34:38;;;;;;;15.98;9.20;;;14.10;1.00;;;;;;6171957;23;20361;-79
2023/10/29 07:37:13;;;;;;;15.43;7.90;;;14.20;99.90;;;;;;6144785;23;20017;-77
2023/10/29 07:54:31;;;;;;;17.88;11.27;;;14.90;72.20;;;;;;6023036;23;20034;-75
2023/10/29 07:56:58;;;;;;;20.30;10.73;;;15.10;1.00;;;;;;6027975;23;20093;-77
2023/10/29 07:59:26;;;;;;;18.58;10.90;;;15.20;1.00;;;;;;6037247;23;20023;-78
2023/10/29 08:01:53;;;;;;;16.83;9.85;;;15.40;1.00;;;;;;6076781;23;20014;-76
2023/10/29 08:04:20;;;;;;;22.90;10.63;;;15.50;1.00;;;;;;6112572;23;20052;-77
2023/10/29 08:06:49;;;;;;;19.13;10.50;;;15.70;99.90;;;;;;6143451;23;20025;-76
2023/10/29 08:09:16;;;;;;;20.73;11.00;;;15.80;1.00;;;;;;6138356;23;20022;-75
2023/10/29 08:11:45;;;;;;;23.20;11.38;;;15.90;1.00;;;;;;6137176;23;20109;-76
2023/10/29 08:14:13;;;;;;;16.23;10.55;;;16.00;1.00;;;;;;6134924;23;20128;-75
2023/10/29 08:16:41;;;;;;;18.23;10.73;;;16.00;1.00;;;;;;6158912;23;20025;-78
2023/10/29 08:19:11;;;;;;;19.52;12.02;;;16.10;1.00;;;;;;6234594;23;20100;-78
2023/10/29 08:21:42;;;;;;;19.08;10.85;;;16.20;99.90;;;;;;6227503;23;20039;-77
2023/10/29 08:24:10;;;;;;;17.85;11.38;;;16.50;99.90;;;;;;6239355;23;20027;-75
2023/10/29 08:26:37;;;;;;;20.42;12.20;;;16.60;99.90;;;;;;6234866;23;20024;-79
2023/10/29 08:29:06;;;;;;;18.95;10.93;;;16.60;99.90;;;;;;6216047;23;20507;-75
2023/10/29 08:31:33;;;;;;;17.30;9.77;;;16.70;99.90;;;;;;6226941;23;20020;-77
2023/10/29 08:34:01;;;;;;;19.15;11.20;;;16.90;99.90;;;;;;6226952;23;20467;-79
2023/10/29 08:36:28;;;;;;;20.38;11.15;;;16.90;1.00;;;;;;6190306;23;20332;-74
2023/10/29 08:38:56;;;;;;;21.48;12.68;;;17.00;1.00;;;;;;6191160;23;20039;-78
2023/10/29 08:41:23;;;;;;;19.75;11.63;;;17.00;1.00;;;;;;6229766;23;20044;-77
2023/10/29 08:43:52;;;;;;;33.58;14.02;;;17.10;1.00;;;;;;6231590;23;20023;-77
2023/10/29 08:46:20;;;;;;;14.48;10.05;;;17.20;1.00;;;;;;6239893;23;20088;-77
2023/10/29 08:48:48;;;;;;;24.65;17.92;;;17.30;99.90;;;;;;6208031;23;20016;-77
2023/10/29 08:51:17;;;;;;;28.13;17.42;;;17.30;1.00;;;;;;6244396;23;20012;-79
2023/10/29 08:53:54;;;;;;;19.33;9.48;;;17.50;99.90;;;;;;6209635;23;20039;-76
2023/10/29 08:56:24;;;;;;;12.10;6.78;;;17.60;1.00;;;;;;6247921;23;20012;-77
2023/10/29 08:58:51;;;;;;;19.63;9.02;;;17.80;99.90;;;;;;6221162;23;20092;-77
2023/10/29 09:01:20;;;;;;;14.25;7.22;;;17.90;99.90;;;;;;6218163;23;20068;-78
2023/10/29 09:03:48;;;;;;;12.75;5.97;;;18.10;99.90;;;;;;6242138;23;20013;-77
2023/10/29 09:06:16;;;;;;;15.02;7.47;;;18.20;1.00;;;;;;6236060;23;20024;-77
2023/10/29 09:08:43;;;;;;;11.55;6.03;;;18.30;1.00;;;;;;6198181;23;20027;-77
2023/10/29 09:11:14;;;;;;;10.32;6.45;;;18.40;1.00;;;;;;6243523;23;20095;-77
2023/10/29 09:13:42;;;;;;;11.32;6.03;;;18.50;99.90;;;;;;6233961;23;20573;-76
2023/10/29 09:16:09;;;;;;;11.18;6.22;;;18.70;99.90;;;;;;6231582;23;20020;-76
2023/10/29 09:18:39;;;;;;;13.90;7.20;;;18.80;99.90;;;;;;6232724;23;20012;-78
2023/10/29 09:21:07;;;;;;;13.10;7.78;;;18.90;99.90;;;;;;6234935;23;20067;-77
2023/10/29 09:23:34;;;;;;;11.23;4.90;;;19.10;99.90;;;;;;6235454;23;20092;-76
2023/10/29 09:26:03;;;;;;;10.15;4.90;;;19.10;67.30;;;;;;6201426;23;20017;-78
2023/10/29 09:28:33;;;;;;;11.48;4.28;;;19.30;13.60;;;;;;6240407;23;20008;-78
2023/10/29 09:31:04;;;;;;;8.10;3.72;;;19.40;1.00;;;;;;6234328;23;20018;-78
2023/10/29 09:33:32;;;;;;;9.20;4.10;;;19.50;1.00;;;;;;6231539;23;20009;-78
2023/10/29 09:36:03;;;;;;;10.32;4.13;;;19.60;1.00;;;;;;6231790;23;20016;-79
2023/10/29 09:38:30;;;;;;;6.35;3.13;;;19.60;1.00;;;;;;6192880;23;20370;-80
2023/10/29 09:40:58;;;;;;;9.02;3.80;;;19.70;1.00;;;;;;6233227;23;20019;-82
2023/10/29 09:43:32;;;;;;;11.75;3.75;;;19.80;1.00;;;;;;6232882;23;20012;-79
2023/10/29 09:46:03;;;;;;;7.45;2.67;;;19.90;1.00;;;;;;6230644;23;20016;-81
2023/10/29 09:48:32;;;;;;;10.65;4.15;;;20.00;1.00;;;;;;6193804;23;20017;-82
2023/10/29 09:51:00;;;;;;;5.97;2.75;;;20.00;1.00;;;;;;6226692;23;20017;-78
2023/10/29 09:53:32;;;;;;;9.93;4.70;;;20.20;1.00;;;;;;6227926;23;20083;-80
2023/10/29 09:55:59;;;;;;;7.43;3.55;;;20.20;1.00;;;;;;6229001;23;20009;-78
2023/10/29 09:58:27;;;;;;;8.50;3.70;;;20.30;1.00;;;;;;6192423;23;20063;-77
2023/10/29 10:00:58;;;;;;;6.53;3.50;;;20.30;1.00;;;;;;6227072;23;20024;-77
2023/10/29 10:03:27;;;;;;;8.40;4.57;;;20.40;1.00;;;;;;6227529;23;20067;-79
2023/10/29 10:05:55;;;;;;;8.70;4.95;;;20.50;1.00;;;;;;6226276;23;20063;-77
2023/10/29 10:08:26;;;;;;;6.30;3.03;;;20.70;1.00;;;;;;6226240;23;20024;-78
2023/10/29 10:10:58;;;;;;;7.63;3.55;;;20.80;1.00;;;;;;6226501;23;20067;-77
2023/10/29 10:13:37;;;;;;;10.75;2.70;;;20.80;1.00;;;;;;6231781;23;20020;-78
2023/10/29 10:16:09;;;;;;;6.93;2.90;;;20.90;1.00;;;;;;6226784;23;20021;-79
2023/10/29 10:18:53;;;;;;;7.90;3.53;;;20.90;1.00;;;;;;6188516;23;20039;-79
2023/10/29 10:21:21;;;;;;;7.22;3.63;;;21.10;1.00;;;;;;6227964;23;20034;-77
2023/10/29 10:23:52;;;;;;;7.05;2.20;;;21.30;1.00;;;;;;6227365;23;20457;-77
2023/10/29 10:26:34;;;;;;;8.38;3.75;;;21.30;1.00;;;;;;6228641;23;20020;-78
2023/10/29 10:29:03;;;;;;;6.53;2.95;;;21.30;1.00;;;;;;6230113;23;20017;-78
2023/10/29 10:31:35;;;;;;;7.68;3.40;;;21.30;1.00;;;;;;6219071;23;20096;-79
2023/10/29 10:34:16;;;;;;;9.63;5.00;;;21.30;1.00;;;;;;6204147;23;20025;-78
2023/10/29 10:36:45;;;;;;;8.73;3.28;;;21.30;1.00;;;;;;6218281;23;20699;-78
2023/10/29 10:39:12;;;;;;;6.95;3.08;;;21.40;1.00;;;;;;6219673;23;20017;-78
2023/10/29 10:41:55;;;;;;;6.70;2.08;;;21.50;1.00;;;;;;6219065;23;20020;-79
2023/10/29 10:44:26;;;;;;;6.88;3.15;;;21.60;1.00;;;;;;6228344;23;20103;-78
2023/10/29 10:46:56;;;;;;;10.00;3.13;;;21.60;1.00;;;;;;6214692;23;20029;-77
2023/10/29 10:49:28;;;;;;;8.32;2.65;;;21.70;1.00;;;;;;6190474;23;20036;-80
2023/10/29 10:51:58;;;;;;;6.28;3.05;;;21.80;1.00;;;;;;6227166;23;20345;-78
2023/10/29 10:54:27;;;;;;;8.52;4.13;;;21.90;1.00;;;;;;6230202;23;20000;-78
2023/10/29 10:57:04;;;;;;;7.68;4.03;;;21.80;1.00;;;;;;6219423;23;20051;-79
2023/10/29 10:59:35;;;;;;;11.23;3.60;;;21.80;1.00;;;;;;6230313;23;20059;-80
2023/10/29 11:02:08;;;;;;;36.78;25.52;;;21.80;1.00;;;;;;6219625;23;20013;-79
2023/10/29 11:04:36;;;;;;;6.78;2.38;;;21.90;1.00;;;;;;6217443;23;20406;-79
2023/10/29 11:07:06;;;;;;;6.72;3.55;;;21.80;1.00;;;;;;6231431;23;20024;-79
2023/10/29 11:09:35;;;;;;;6.32;2.78;;;21.90;1.00;;;;;;6249326;23;20072;-79
2023/10/29 11:12:05;;;;;;;12.73;6.38;;;21.90;1.00;;;;;;6235571;23;20017;-79
2023/10/29 11:14:33;;;;;;;8.20;4.40;;;21.90;1.00;;;;;;6248115;22;20065;-83
2023/10/29 11:17:02;;;;;;;13.43;7.90;;;22.10;1.00;;;;;;6214119;22;20111;-77
2023/10/29 11:19:43;;;;;;;11.48;6.82;;;22.20;1.00;;;;;;6222640;22;20036;-84
2023/10/29 11:22:20;;;;;;;10.57;2.40;;;22.10;1.00;;;;;;6214478;23;20093;-84
2023/10/29 11:25:37;;;;;;;7.30;4.30;;;22.00;1.00;;;;;;6248093;22;20080;-84
2023/10/29 11:28:06;;;;;;;7.40;4.07;;;22.00;1.00;;;;;;6128136;23;20066;-85
2023/10/29 11:30:35;;;;;;;8.20;3.60;;;21.90;1.00;;;;;;6092697;23;20032;-84
2023/10/29 11:33:25;;;;;;;8.70;3.97;;;21.90;1.00;;;;;;6124689;23;20025;-82
2023/10/29 11:36:32;;;;;;;8.13;3.45;;;21.90;1.00;;;;;;6079438;23;20087;-84
2023/10/29 11:39:21;;;;;;;;;;;21.90;1.00;;;;;;6110263;23;20014;-84
2023/10/29 11:41:51;;;;;;;8.93;4.88;;;21.90;1.00;;;;;;6094523;23;20358;-84
2023/10/29 11:44:28;;;;;;;126.70;19.65;;;22.00;1.00;;;;;;6075186;23;20015;-84
2023/10/29 11:47:07;;;;;;;11.05;5.85;;;22.00;1.00;;;;;;6072148;23;20105;-85
2023/10/29 11:50:12;;;;;;;9.45;5.32;;;22.00;1.00;;;;;;6073976;23;20018;-85
2023/10/29 11:52:46;;;;;;;12.63;6.88;;;22.10;1.00;;;;;;6063281;23;20446;-87
2023/10/29 11:55:13;;;;;;;9.77;4.53;;;22.10;1.00;;;;;;6070621;23;20065;-85
2023/10/29 11:57:48;;;;;;;11.43;6.95;;;22.10;1.00;;;;;;6103453;23;20022;-85
2023/10/29 12:00:18;;;;;;;9.13;4.88;;;22.20;1.00;;;;;;6103079;23;20042;-83
2023/10/29 12:02:46;;;;;;;8.05;3.83;;;22.50;1.00;;;;;;6187089;23;20115;-84
2023/10/29 12:05:15;;;;;;;5.38;2.65;;;22.50;1.00;;;;;;6223958;23;20023;-84
2023/10/29 12:07:42;;;;;;;6.25;2.50;;;22.50;1.00;;;;;;6187857;23;20025;-84
2023/10/29 12:10:10;;;;;;;6.53;3.50;;;22.60;1.00;;;;;;6187612;23;20042;-83
2023/10/29 12:12:38;;;;;;;9.65;4.03;;;22.50;1.00;;;;;;6187649;23;20021;-84
2023/10/29 12:15:07;;;;;;;7.15;3.33;;;22.40;1.00;;;;;;6188580;23;20394;-84
2023/10/29 12:17:36;;;;;;;8.85;3.78;;;22.40;1.00;;;;;;6225222;23;20036;-83
2023/10/29 12:20:04;;;;;;;6.57;2.70;;;22.50;1.00;;;;;;6189489;23;20047;-84
2023/10/29 12:22:32;;;;;;;8.73;2.97;;;22.50;1.00;;;;;;6191723;23;20020;-85
2023/10/29 12:25:01;;;;;;;7.68;3.83;;;22.50;1.00;;;;;;6188750;23;20024;-84
2023/10/29 12:27:30;;;;;;;12.13;4.63;;;22.40;1.00;;;;;;6187259;23;20024;-84
2023/10/29 12:29:57;;;;;;;9.45;4.30;;;22.40;1.00;;;;;;6187538;23;20020;-85
2023/10/29 12:32:27;;;;;;;10.85;5.57;;;22.40;1.00;;;;;;6197093;23;20017;-84
2023/10/29 12:34:59;;;;;;;6.85;4.28;;;22.40;1.00;;;;;;6247983;22;20063;-85
2023/10/29 12:37:30;;;;;;;8.82;3.53;;;22.40;1.00;;;;;;6214474;22;20001;-84
2023/10/29 12:40:05;;;;;;;6.03;3.45;;;22.60;1.00;;;;;;6209107;23;20016;-83
2023/10/29 12:42:52;;;;;;;5.35;2.75;;;22.60;1.00;;;;;;6241451;23;20020;-84
2023/10/29 12:45:26;;;;;;;6.78;3.50;;;22.60;1.00;;;;;;6194230;23;20024;-84
2023/10/29 12:48:10;;;;;;;14.18;3.40;;;22.60;1.00;;;;;;6191729;23;20427;-84
2023/10/29 12:50:50;;;;;;;6.55;3.22;;;22.50;1.00;;;;;;6197060;23;20020;-83
2023/10/29 12:53:31;;;;;;;8.23;4.20;;;22.50;1.00;;;;;;6230332;23;20013;-84
2023/10/29 12:56:04;;;;;;;6.68;3.05;;;22.50;1.00;;;;;;6229001;23;20012;-84
2023/10/29 12:58:31;;;;;;;8.73;3.28;;;22.40;1.00;;;;;;6194444;23;20079;-85
2023/10/29 13:01:00;;;;;;;6.40;2.97;;;22.50;1.00;;;;;;6189779;23;20043;-84
2023/10/29 13:03:30;;;;;;;8.90;4.32;;;22.50;1.00;;;;;;6228084;23;20012;-84
2023/10/29 13:05:59;;;;;;;9.63;4.47;;;22.50;1.00;;;;;;6228365;23;20019;-84
2023/10/29 13:08:27;;;;;;;6.95;3.63;;;22.50;1.00;;;;;;6229235;23;20016;-83
2023/10/29 13:10:55;;;;;;;6.35;3.83;;;22.60;1.00;;;;;;6194521;23;20032;-84
2023/10/29 13:13:23;;;;;;;8.70;4.60;;;22.70;1.00;;;;;;6190524;23;20072;-85
2023/10/29 13:16:37;;;;;;;6.90;2.83;;;22.70;1.00;;;;;;6190802;23;20024;-83
2023/10/29 13:19:08;;;;;;;7.10;3.03;;;22.70;1.00;;;;;;6157032;23;20027;-84
2023/10/29 13:21:37;;;;;;;9.02;4.32;;;22.70;1.00;;;;;;6187725;23;20024;-84